createdAt,value
2023-01-21T00:01:43.411Z,-1.40
2023-01-21T00:04:11.228Z,-1.40
2023-01-21T00:06:39.070Z,-1.50
2023-01-21T00:09:06.908Z,-1.30
2023-01-21T00:11:34.760Z,-1.20
2023-01-21T00:14:02.600Z,-1.20
2023-01-21T00:16:30.505Z,-1.20
2023-01-21T00:18:59.688Z,-1.20
2023-01-21T00:21:27.578Z,-0.10
2023-01-21T00:23:56.284Z,-0.60
2023-01-21T00:26:24.207Z,-0.90
2023-01-21T00:28:52.116Z,-1.10
2023-01-21T00:31:20.095Z,-1.10
2023-01-21T00:33:48.521Z,-1.30
2023-01-21T00:36:18.913Z,-1.20
2023-01-21T00:38:48.383Z,-1.30
2023-01-21T00:41:16.338Z,-1.40
2023-01-21T00:43:44.256Z,-1.40
2023-01-21T00:46:12.259Z,-1.50
2023-01-21T00:48:40.386Z,-1.40
2023-01-21T00:51:08.380Z,-1.40
2023-01-21T00:53:39.210Z,-1.30
2023-01-21T00:56:08.300Z,-1.20
2023-01-21T00:58:36.454Z,-1.50
2023-01-21T01:01:04.847Z,-1.50
2023-01-21T01:03:32.683Z,-1.40
2023-01-21T01:06:04.433Z,-1.50
2023-01-21T01:08:32.403Z,-1.40
2023-01-21T01:11:01.688Z,-1.40
2023-01-21T01:13:29.733Z,-1.50
2023-01-21T01:15:58.593Z,-1.50
2023-01-21T01:18:26.819Z,-1.50
2023-01-21T01:20:54.816Z,-1.40
2023-01-21T01:23:22.736Z,-1.50
2023-01-21T01:25:56.220Z,-1.50
2023-01-21T01:28:25.470Z,-1.60
2023-01-21T01:30:54.310Z,-1.40
2023-01-21T01:33:22.273Z,-1.40
2023-01-21T01:35:50.141Z,-1.50
2023-01-21T01:38:20.117Z,-1.40
2023-01-21T01:40:48.091Z,-1.30
2023-01-21T01:43:17.781Z,-1.30
2023-01-21T01:45:48.038Z,-1.50
2023-01-21T01:48:18.204Z,-1.50
2023-01-21T01:50:46.152Z,-1.50
2023-01-21T01:53:14.014Z,-1.60
2023-01-21T01:55:41.879Z,-1.50
2023-01-21T01:58:11.524Z,-1.60
2023-01-21T02:00:39.341Z,-1.60
2023-01-21T02:03:26.164Z,-1.60
2023-01-21T02:05:54.706Z,-1.50
2023-01-21T02:08:22.601Z,-1.50
2023-01-21T02:10:50.463Z,-1.60
2023-01-21T02:13:18.332Z,-1.50
2023-01-21T02:15:52.154Z,-1.60
2023-01-21T02:18:25.391Z,-1.60
2023-01-21T02:21:38.969Z,-1.60
2023-01-21T02:24:36.631Z,-1.60
2023-01-21T02:27:30.855Z,-1.50
2023-01-21T02:30:10.148Z,-1.50
2023-01-21T02:33:11.317Z,-1.50
2023-01-21T02:35:42.294Z,-1.50
2023-01-21T02:38:12.226Z,-1.40
2023-01-21T02:40:43.095Z,-1.40
2023-01-21T02:43:13.498Z,-1.50
2023-01-21T02:45:44.981Z,-1.40
2023-01-21T02:48:15.867Z,-1.40
2023-01-21T02:50:46.470Z,-1.40
2023-01-21T02:53:25.273Z,-1.50
2023-01-21T02:55:53.131Z,-1.50
2023-01-21T02:58:22.020Z,-1.40
2023-01-21T03:00:56.213Z,-1.40
2023-01-21T03:03:56.221Z,-1.40
2023-01-21T03:06:42.686Z,-1.40
2023-01-21T03:09:18.487Z,-1.40
2023-01-21T03:11:49.610Z,-1.40
2023-01-21T03:14:33.229Z,-1.40
2023-01-21T03:17:02.924Z,-1.50
2023-01-21T03:19:33.589Z,-1.50
2023-01-21T03:22:05.403Z,-1.40
2023-01-21T03:24:33.413Z,-1.50
2023-01-21T03:27:01.963Z,-1.60
2023-01-21T03:29:30.310Z,-1.50
2023-01-21T03:31:59.169Z,-1.50
2023-01-21T03:34:27.845Z,-1.40
2023-01-21T03:36:56.710Z,-1.40
2023-01-21T03:39:30.161Z,-1.50
2023-01-21T03:41:58.102Z,-1.60
2023-01-21T03:44:26.086Z,-1.60
2023-01-21T03:46:58.107Z,-1.70
2023-01-21T03:49:28.845Z,-1.80
2023-01-21T03:51:58.084Z,-1.70
2023-01-21T03:54:27.266Z,-1.70
2023-01-21T03:56:55.041Z,-1.80
2023-01-21T03:59:22.849Z,-1.80
2023-01-21T04:01:50.746Z,-1.80
2023-01-21T04:04:18.582Z,-1.80
2023-01-21T04:06:46.361Z,-1.90
2023-01-21T04:09:14.208Z,-1.80
2023-01-21T04:11:43.426Z,-1.80
2023-01-21T04:14:11.244Z,-1.90
2023-01-21T04:16:39.072Z,-1.80
2023-01-21T04:19:06.921Z,-1.90
2023-01-21T04:21:34.735Z,-1.90
2023-01-21T04:24:02.547Z,-1.80
2023-01-21T04:26:30.333Z,-1.80
2023-01-21T04:28:59.495Z,-1.90
2023-01-21T04:31:27.310Z,-2.00
2023-01-21T04:33:55.121Z,-1.90
2023-01-21T04:36:22.911Z,-1.90
2023-01-21T04:38:50.709Z,-1.90
2023-01-21T04:41:18.506Z,-1.90
2023-01-21T04:43:46.318Z,-1.80
2023-01-21T04:46:15.504Z,-1.90
2023-01-21T04:48:43.364Z,-1.90
2023-01-21T04:51:11.209Z,-1.90
2023-01-21T04:53:39.033Z,-2.00
2023-01-21T04:56:07.399Z,-1.90
2023-01-21T04:58:35.485Z,-2.00
2023-01-21T05:01:03.297Z,-1.80
2023-01-21T05:03:32.458Z,-2.00
2023-01-21T05:06:00.308Z,-2.00
2023-01-21T05:08:28.139Z,-2.00
2023-01-21T05:10:55.940Z,-2.00
2023-01-21T05:13:23.729Z,-1.90
2023-01-21T05:15:51.856Z,-1.60
2023-01-21T05:18:19.720Z,-1.90
2023-01-21T05:20:48.884Z,-1.70
2023-01-21T05:23:16.672Z,-1.80
2023-01-21T05:25:44.490Z,-1.90
2023-01-21T05:28:12.279Z,-2.00
2023-01-21T05:30:41.097Z,-2.00
2023-01-21T05:33:09.579Z,-1.80
2023-01-21T05:35:37.533Z,-1.80
2023-01-21T05:38:06.689Z,-1.80
2023-01-21T05:40:34.505Z,-1.30
2023-01-21T05:43:02.293Z,-1.60
2023-01-21T05:45:30.122Z,-1.40
2023-01-21T05:47:57.926Z,-1.40
2023-01-21T05:50:25.728Z,-1.60
2023-01-21T05:52:53.543Z,-1.70
2023-01-21T05:55:22.708Z,-1.80
2023-01-21T05:57:51.345Z,-1.90
2023-01-21T06:00:20.191Z,-1.90
2023-01-21T06:02:48.093Z,-2.00
2023-01-21T06:05:16.008Z,-2.00
2023-01-21T06:07:43.808Z,-2.10
2023-01-21T06:10:12.117Z,-2.00
2023-01-21T06:12:41.268Z,-2.10
2023-01-21T06:15:10.105Z,-2.00
2023-01-21T06:17:39.998Z,-2.00
2023-01-21T06:20:09.158Z,-2.00
2023-01-21T06:22:37.047Z,-2.10
2023-01-21T06:25:05.290Z,-2.10
2023-01-21T06:27:34.167Z,-2.10
2023-01-21T06:30:03.300Z,-2.00
2023-01-21T06:32:31.116Z,-2.00
2023-01-21T06:34:58.909Z,-2.00
2023-01-21T06:37:26.807Z,-2.00
2023-01-21T06:39:54.640Z,-1.90
2023-01-21T06:42:22.454Z,-2.00
2023-01-21T06:44:50.289Z,-2.10
2023-01-21T06:47:19.432Z,-1.90
2023-01-21T06:49:47.234Z,-2.00
2023-01-21T06:52:15.069Z,-2.00
2023-01-21T06:54:43.289Z,-2.00
2023-01-21T06:57:11.141Z,-2.00
2023-01-21T06:59:38.983Z,-2.00
2023-01-21T07:02:06.825Z,-2.00
2023-01-21T07:04:36.105Z,-1.90
2023-01-21T07:07:03.977Z,-1.80
2023-01-21T07:09:31.761Z,-1.90
2023-01-21T07:11:59.675Z,-2.00
2023-01-21T07:14:27.521Z,-2.10
2023-01-21T07:16:55.346Z,-2.10
2023-01-21T07:19:23.170Z,-2.20
2023-01-21T07:21:52.332Z,-2.10
2023-01-21T07:24:20.152Z,-1.90
2023-01-21T07:26:48.285Z,-1.80
2023-01-21T07:29:16.088Z,-1.90
2023-01-21T07:31:44.212Z,-1.90
2023-01-21T07:34:12.072Z,-2.00
2023-01-21T07:36:39.867Z,-2.10
2023-01-21T07:39:09.031Z,-2.10
2023-01-21T07:41:36.854Z,-2.00
2023-01-21T07:44:04.640Z,-1.00
2023-01-21T07:46:33.265Z,-1.80
2023-01-21T07:49:01.130Z,-2.00
2023-01-21T07:51:28.927Z,-2.10
2023-01-21T07:53:56.772Z,-2.10
2023-01-21T07:56:26.926Z,-2.10
2023-01-21T07:58:54.923Z,-2.00
2023-01-21T08:01:25.592Z,-1.90
2023-01-21T08:03:53.469Z,-1.80
2023-01-21T08:06:21.288Z,-1.90
2023-01-21T08:08:49.111Z,-1.80
2023-01-21T08:11:16.950Z,-2.10
2023-01-21T08:13:46.138Z,-2.10
2023-01-21T08:16:14.011Z,-2.10
2023-01-21T08:18:41.816Z,-2.10
2023-01-21T08:21:09.696Z,-2.10
2023-01-21T08:23:37.486Z,-2.10
2023-01-21T08:26:05.742Z,-1.60
2023-01-21T08:28:33.710Z,-1.10
2023-01-21T08:31:06.988Z,-1.60
2023-01-21T08:33:34.881Z,-1.40
2023-01-21T08:36:03.004Z,-1.90
2023-01-21T08:38:30.859Z,-1.80
2023-01-21T08:40:58.959Z,-1.90
2023-01-21T08:43:26.830Z,-2.00
2023-01-21T08:45:56.780Z,-1.90
2023-01-21T08:48:26.100Z,-2.00
2023-01-21T08:50:53.897Z,-1.90
2023-01-21T08:53:21.852Z,-2.10
2023-01-21T08:55:49.696Z,-2.00
2023-01-21T08:58:17.490Z,-2.00
2023-01-21T09:00:45.320Z,-1.90
2023-01-21T09:03:13.731Z,-2.00
2023-01-21T09:05:42.901Z,-1.50
2023-01-21T09:08:10.712Z,-1.80
2023-01-21T09:10:55.738Z,-1.90
2023-01-21T09:13:23.584Z,-2.00
2023-01-21T09:15:51.428Z,-2.10
2023-01-21T09:18:19.254Z,-2.10
2023-01-21T09:20:48.409Z,-2.20
2023-01-21T09:23:25.380Z,-2.10
2023-01-21T09:25:53.296Z,-2.10
2023-01-21T09:28:21.435Z,-2.10
2023-01-21T09:30:49.273Z,-2.10
2023-01-21T09:33:17.133Z,-2.00
2023-01-21T09:35:45.014Z,-2.10
2023-01-21T09:38:14.171Z,-2.10
2023-01-21T09:40:45.820Z,-1.90
2023-01-21T09:43:16.030Z,-1.80
2023-01-21T09:45:43.950Z,-1.70
2023-01-21T09:48:12.388Z,-1.70
2023-01-21T09:50:40.177Z,-1.20
2023-01-21T09:53:18.401Z,-1.60
2023-01-21T09:55:48.112Z,-1.80
2023-01-21T09:58:19.637Z,-1.70
2023-01-21T10:00:49.440Z,-1.60
2023-01-21T10:03:20.741Z,-1.70
2023-01-21T10:06:27.031Z,-1.80
2023-01-21T10:09:24.663Z,-1.90
2023-01-21T10:12:14.483Z,-2.00
2023-01-21T10:14:57.154Z,-1.90
2023-01-21T10:17:30.217Z,-1.90
2023-01-21T10:20:14.743Z,-2.00
2023-01-21T10:22:44.227Z,-2.00
2023-01-21T10:25:19.588Z,-1.90
2023-01-21T10:27:47.540Z,-1.70
2023-01-21T10:30:23.708Z,-1.80
2023-01-21T10:32:52.402Z,-1.60
2023-01-21T10:35:20.647Z,-1.80
2023-01-21T10:37:50.534Z,-1.70
2023-01-21T10:40:41.771Z,-1.60
2023-01-21T10:43:12.145Z,-1.50
2023-01-21T10:45:42.712Z,-1.60
2023-01-21T10:48:14.382Z,-1.70
2023-01-21T10:50:48.005Z,-1.60
2023-01-21T10:53:20.723Z,-1.30
2023-01-21T10:55:59.835Z,-1.40
2023-01-21T10:58:29.499Z,-1.30
2023-01-21T11:00:58.582Z,-1.50
2023-01-21T11:03:31.946Z,-1.30
2023-01-21T11:06:00.139Z,-1.40
2023-01-21T11:08:28.034Z,-1.50
2023-01-21T11:10:57.859Z,-1.60
2023-01-21T11:13:25.679Z,-1.40
2023-01-21T11:15:55.335Z,-1.30
2023-01-21T11:18:30.598Z,-1.40
2023-01-21T11:21:00.170Z,-1.30
2023-01-21T11:23:29.242Z,-1.20
2023-01-21T11:26:04.280Z,-1.30
2023-01-21T11:28:32.364Z,-1.30
2023-01-21T11:31:08.972Z,-1.30
2023-01-21T11:33:36.960Z,-1.20
2023-01-21T11:36:12.632Z,-1.40
2023-01-21T11:38:40.591Z,-1.40
2023-01-21T11:41:18.950Z,-1.50
2023-01-21T11:43:47.540Z,-1.50
2023-01-21T11:46:28.506Z,-1.50
2023-01-21T11:48:57.561Z,-1.30
2023-01-21T11:51:25.477Z,-1.30
2023-01-21T11:54:11.878Z,-1.30
2023-01-21T11:56:43.187Z,-1.30
2023-01-21T11:59:18.636Z,-1.40
2023-01-21T12:01:52.053Z,-1.30
2023-01-21T12:04:19.891Z,-1.50
2023-01-21T12:06:48.514Z,-1.30
2023-01-21T12:09:18.907Z,-1.20
2023-01-21T12:11:49.187Z,-1.20
2023-01-21T12:14:20.705Z,-1.20
2023-01-21T12:16:51.845Z,-1.30
2023-01-21T12:19:27.479Z,-1.30
2023-01-21T12:22:43.959Z,-1.20
2023-01-21T12:25:22.860Z,-1.20
2023-01-21T12:27:59.150Z,-1.20
2023-01-21T12:30:31.193Z,-1.20
2023-01-21T12:33:00.913Z,-1.20
2023-01-21T12:35:31.090Z,-1.20
2023-01-21T12:38:01.645Z,-1.30
2023-01-21T12:40:31.760Z,-1.30
2023-01-21T12:43:03.328Z,-1.20
2023-01-21T12:45:33.471Z,-1.30
2023-01-21T12:48:02.228Z,-1.10
2023-01-21T12:50:30.917Z,-0.90
2023-01-21T12:53:04.959Z,-1.10
2023-01-21T12:55:38.302Z,-1.10
2023-01-21T12:58:10.652Z,-1.30
2023-01-21T13:00:39.193Z,-1.40
2023-01-21T13:03:13.464Z,-1.30
2023-01-21T13:05:45.314Z,-1.30
2023-01-21T13:08:27.960Z,-1.40
2023-01-21T13:10:57.086Z,-1.40
2023-01-21T13:13:29.833Z,-1.20
2023-01-21T13:15:59.748Z,-1.30
2023-01-21T13:18:30.137Z,-1.30
2023-01-21T13:21:01.466Z,-1.30
2023-01-21T13:23:32.363Z,-1.20
2023-01-21T13:26:02.067Z,-1.10
2023-01-21T13:28:33.210Z,-1.20
2023-01-21T13:31:02.998Z,-1.20
2023-01-21T13:33:35.109Z,-1.10
2023-01-21T13:36:12.063Z,-1.10
2023-01-21T13:38:43.180Z,-0.90
2023-01-21T13:41:21.217Z,-1.00
2023-01-21T13:43:58.589Z,-1.00
2023-01-21T13:46:39.502Z,-1.00
2023-01-21T13:49:15.909Z,-1.00
2023-01-21T13:51:47.858Z,-0.90
2023-01-21T13:54:24.250Z,-1.00
2023-01-21T13:56:59.930Z,-1.20
2023-01-21T13:59:31.288Z,-1.20
2023-01-21T14:02:00.525Z,-1.20
2023-01-21T14:04:31.037Z,-1.20
2023-01-21T14:07:01.628Z,-1.30
2023-01-21T14:09:31.617Z,-1.30
2023-01-21T14:12:02.385Z,-1.30
2023-01-21T14:15:01.999Z,-1.50
2023-01-21T14:17:44.758Z,-1.60
2023-01-21T14:20:28.665Z,-1.50
2023-01-21T14:23:17.519Z,-1.50
2023-01-21T14:25:54.825Z,-1.40
2023-01-21T14:28:26.569Z,-1.40
2023-01-21T14:31:02.499Z,-1.50
2023-01-21T14:33:35.121Z,-1.50
2023-01-21T14:36:04.801Z,-1.60
2023-01-21T14:38:35.105Z,-1.60
2023-01-21T14:41:07.216Z,-1.50
2023-01-21T14:43:53.183Z,-1.60
2023-01-21T14:46:30.203Z,-1.60
2023-01-21T14:49:00.239Z,-1.50
2023-01-21T14:51:28.508Z,-1.40
2023-01-21T14:53:59.714Z,-1.40
2023-01-21T14:56:28.930Z,-1.50
2023-01-21T14:58:58.527Z,-1.60
2023-01-21T15:01:36.728Z,-1.60
2023-01-21T15:04:07.439Z,-1.60
2023-01-21T15:06:37.902Z,-1.70
2023-01-21T15:09:06.790Z,-1.60
2023-01-21T15:11:36.912Z,-1.50
2023-01-21T15:14:12.202Z,-1.40
2023-01-21T15:16:41.574Z,-1.50
2023-01-21T15:19:25.030Z,-1.50
2023-01-21T15:22:30.112Z,-1.50
2023-01-21T15:25:31.432Z,-1.40
2023-01-21T15:28:35.658Z,-1.40
2023-01-21T15:31:04.424Z,-1.50
2023-01-21T15:33:36.560Z,-1.60
2023-01-21T15:36:04.854Z,-1.60
2023-01-21T15:38:32.680Z,-1.40
2023-01-21T15:42:04.744Z,-1.50
2023-01-21T15:45:23.584Z,-1.50
2023-01-21T15:48:17.433Z,-1.50
2023-01-21T15:50:48.976Z,-1.40
2023-01-21T15:53:36.414Z,-1.50
2023-01-21T15:56:18.472Z,-1.50
2023-01-21T15:58:51.763Z,-1.50
2023-01-21T16:01:23.135Z,-1.50
2023-01-21T16:04:01.893Z,-1.50
2023-01-21T16:06:33.805Z,-1.50
2023-01-21T16:09:05.795Z,-1.50
2023-01-21T16:11:41.704Z,-1.50
2023-01-21T16:14:16.826Z,-1.60
2023-01-21T16:16:50.383Z,-1.70
2023-01-21T16:19:19.663Z,-1.60
2023-01-21T16:21:51.406Z,-1.40
2023-01-21T16:24:20.973Z,-1.00
2023-01-21T16:26:48.778Z,-1.20
2023-01-21T16:29:16.695Z,-1.20
2023-01-21T16:31:48.700Z,-1.10
2023-01-21T16:34:17.736Z,-1.20
2023-01-21T16:36:45.520Z,-1.30
2023-01-21T16:39:14.659Z,-1.40
2023-01-21T16:41:42.446Z,-1.60
2023-01-21T16:44:11.615Z,-1.50
2023-01-21T16:46:40.331Z,-1.70
2023-01-21T16:49:13.465Z,-1.70
2023-01-21T16:51:42.103Z,-1.60
2023-01-21T16:54:30.610Z,-1.50
2023-01-21T16:56:59.733Z,-1.50
2023-01-21T16:59:29.052Z,-1.50
2023-01-21T17:01:57.045Z,-1.60
2023-01-21T17:04:24.869Z,-1.60
2023-01-21T17:06:53.892Z,-1.60
2023-01-21T17:09:25.182Z,-1.40
2023-01-21T17:11:54.322Z,-1.20
2023-01-21T17:14:26.082Z,-1.40
2023-01-21T17:16:54.625Z,-1.40
2023-01-21T17:19:24.326Z,-1.50
2023-01-21T17:21:55.432Z,-1.40
2023-01-21T17:24:24.908Z,-1.60
2023-01-21T17:26:54.944Z,-1.40
2023-01-21T17:29:24.054Z,-1.50
2023-01-21T17:31:55.856Z,-1.50
2023-01-21T17:34:24.409Z,-1.50
2023-01-21T17:36:52.996Z,-1.50
2023-01-21T17:39:58.172Z,-1.60
2023-01-21T17:42:30.820Z,-1.60
2023-01-21T17:44:59.459Z,-1.80
2023-01-21T17:47:29.092Z,-1.70
2023-01-21T17:49:57.954Z,-1.60
2023-01-21T17:52:25.916Z,-1.50
2023-01-21T17:55:10.419Z,-1.50
2023-01-21T17:57:39.573Z,-1.60
2023-01-21T18:00:25.874Z,-1.60
2023-01-21T18:02:53.813Z,-1.50
2023-01-21T18:05:21.645Z,-1.50
2023-01-21T18:07:49.470Z,-1.60
2023-01-21T18:10:18.636Z,-1.50
2023-01-21T18:12:47.798Z,-1.60
2023-01-21T18:15:16.023Z,-1.60
2023-01-21T18:17:44.997Z,-1.60
2023-01-21T18:20:17.449Z,-1.50
2023-01-21T18:22:45.770Z,-1.60
2023-01-21T18:25:14.093Z,-1.70
2023-01-21T18:27:41.928Z,-1.70
2023-01-21T18:30:16.481Z,-1.80
2023-01-21T18:32:44.426Z,-1.80
2023-01-21T18:35:13.790Z,-1.70
2023-01-21T18:37:41.590Z,-1.60
2023-01-21T18:40:15.724Z,-1.70
2023-01-21T18:42:43.577Z,-1.70
2023-01-21T18:45:16.257Z,-1.80
2023-01-21T18:47:44.243Z,-1.80
2023-01-21T18:50:17.397Z,-1.80
2023-01-21T18:52:45.208Z,-1.50
2023-01-21T18:55:13.610Z,-0.60
2023-01-21T18:57:41.693Z,-0.50
2023-01-21T19:00:18.932Z,-0.30
2023-01-21T19:02:47.368Z,-1.20
2023-01-21T19:05:15.649Z,-1.40
2023-01-21T19:07:43.846Z,-1.30
2023-01-21T19:10:13.519Z,-1.30
2023-01-21T19:12:41.426Z,-1.40
2023-01-21T19:15:12.282Z,-1.60
2023-01-21T19:17:41.458Z,-1.70
2023-01-21T19:20:16.379Z,-1.60
2023-01-21T19:22:44.311Z,-1.60
2023-01-21T19:25:12.159Z,-1.60
2023-01-21T19:27:41.795Z,-1.70
2023-01-21T19:30:20.537Z,-1.80
2023-01-21T19:32:50.023Z,-1.70
2023-01-21T19:35:19.237Z,-1.80
2023-01-21T19:37:49.257Z,-1.70
2023-01-21T19:40:18.493Z,-1.60
2023-01-21T19:42:46.552Z,-1.70
2023-01-21T19:45:14.914Z,-1.90
2023-01-21T19:47:43.005Z,-1.90
2023-01-21T19:50:14.366Z,-2.00
2023-01-21T19:52:42.176Z,-1.90
2023-01-21T19:55:14.003Z,-1.90
2023-01-21T19:57:41.812Z,-1.90
2023-01-21T20:00:20.526Z,-1.80
2023-01-21T20:02:48.329Z,-1.90
2023-01-21T20:05:18.562Z,-1.90
2023-01-21T20:07:47.359Z,-1.90
2023-01-21T20:10:16.306Z,-2.00
2023-01-21T20:12:44.889Z,-1.90
2023-01-21T20:15:13.525Z,-2.10
2023-01-21T20:17:42.458Z,-1.90
2023-01-21T20:20:19.291Z,-1.90
2023-01-21T20:22:47.178Z,-2.00
2023-01-21T20:25:16.434Z,-1.80
2023-01-21T20:27:44.881Z,-1.80
2023-01-21T20:30:18.533Z,-1.80
2023-01-21T20:32:46.947Z,-2.00
2023-01-21T20:35:15.900Z,-2.00
2023-01-21T20:37:47.561Z,-1.90
2023-01-21T20:40:20.225Z,-1.90
2023-01-21T20:42:48.192Z,-1.80
2023-01-21T20:45:17.196Z,-2.00
2023-01-21T20:47:50.027Z,-2.00
2023-01-21T20:50:19.418Z,-2.00
2023-01-21T20:52:49.019Z,-2.00
2023-01-21T20:55:20.643Z,-2.00
2023-01-21T20:57:49.023Z,-1.90
2023-01-21T21:00:18.156Z,-1.90
2023-01-21T21:02:46.147Z,-2.00
2023-01-21T21:05:14.126Z,-2.00
2023-01-21T21:07:41.955Z,-2.00
2023-01-21T21:10:19.113Z,-2.00
2023-01-21T21:12:47.021Z,-2.00
2023-01-21T21:15:14.999Z,-2.00
2023-01-21T21:17:43.602Z,-2.10
2023-01-21T21:20:18.308Z,-2.10
2023-01-21T21:22:46.475Z,-2.00
2023-01-21T21:25:16.840Z,-2.10
2023-01-21T21:27:44.914Z,-2.10
2023-01-21T21:30:15.122Z,-1.80
2023-01-21T21:32:42.967Z,-1.90
2023-01-21T21:35:23.074Z,-1.90
2023-01-21T21:37:51.146Z,-2.00
2023-01-21T21:40:20.653Z,-1.90
2023-01-21T21:43:06.164Z,-1.90
2023-01-21T21:45:34.015Z,-1.80
2023-01-21T21:48:19.243Z,-1.70
2023-01-21T21:50:46.998Z,-1.90
2023-01-21T21:53:14.763Z,-1.80
2023-01-21T21:55:43.942Z,-1.90
2023-01-21T21:58:11.797Z,-2.00
2023-01-21T22:00:39.894Z,-1.90
2023-01-21T22:03:07.738Z,-2.00
2023-01-21T22:05:37.583Z,-1.90
2023-01-21T22:08:05.504Z,-1.80
2023-01-21T22:10:33.286Z,-1.70
2023-01-21T22:13:02.451Z,-1.70
2023-01-21T22:15:30.297Z,-1.80
2023-01-21T22:17:58.106Z,-2.00
2023-01-21T22:20:25.910Z,-1.90
2023-01-21T22:22:53.687Z,-1.80
2023-01-21T22:25:21.483Z,-1.90
2023-01-21T22:27:49.335Z,-1.80
2023-01-21T22:30:18.967Z,-1.70
2023-01-21T22:32:46.778Z,-1.70
2023-01-21T22:35:14.699Z,-1.80
2023-01-21T22:37:42.471Z,-1.70
2023-01-21T22:40:11.246Z,-1.70
2023-01-21T22:42:39.030Z,-1.70
2023-01-21T22:45:08.223Z,-1.70
2023-01-21T22:47:37.420Z,-1.70
2023-01-21T22:50:06.004Z,-1.80
2023-01-21T22:52:33.792Z,-1.80
2023-01-21T22:55:01.578Z,-1.80
2023-01-21T22:57:29.355Z,-1.90
2023-01-21T22:59:57.176Z,-2.00
2023-01-21T23:02:25.581Z,-2.00
2023-01-21T23:04:54.801Z,-2.10
2023-01-21T23:07:22.584Z,-2.20
2023-01-21T23:09:50.540Z,-2.10
2023-01-21T23:12:19.546Z,-2.20
2023-01-21T23:14:47.513Z,-2.20
2023-01-21T23:17:16.613Z,-2.20
2023-01-21T23:19:44.406Z,-2.20
2023-01-21T23:22:13.557Z,-2.20
2023-01-21T23:24:41.365Z,-2.00
2023-01-21T23:27:09.153Z,-2.00
2023-01-21T23:29:37.876Z,-2.10
2023-01-21T23:32:06.327Z,-2.20
2023-01-21T23:34:34.207Z,-2.20
2023-01-21T23:37:02.031Z,-2.10
2023-01-21T23:39:31.174Z,-2.00
2023-01-21T23:41:58.989Z,-2.10
2023-01-21T23:44:26.791Z,-2.10
2023-01-21T23:46:54.589Z,-1.90
2023-01-21T23:49:22.379Z,-1.90
2023-01-21T23:51:50.235Z,-2.10
2023-01-21T23:54:18.031Z,-2.00
2023-01-21T23:56:47.168Z,-2.00
2023-01-21T23:59:14.928Z,-1.80
